Time;durP1;ratioP1;P1;durP2;ratioP2;P2;SDS_P1;SDS_P2;PMS_P1;PMS_P2;Temp;Humidity;BMP_temperature;BMP_pressure;BME280_temperature;BME280_humidity;BME280_pressure;Samples;Min_cycle;Max_cycle;Signal;HPM_P1;HPM_P2
2021/11/04 00:01:27;;;;;;;;;;;;;;;6.10;84.22;98125.25;4934193;29;19919;-85
2021/11/04 00:03:52;;;;;;;;;;;;;;;6.14;84.45;98118.88;4934782;29;19919;-84
2021/11/04 00:06:17;;;;;;;;;;;;;;;6.14;84.40;98113.63;4936532;29;19923;-86
2021/11/04 00:08:43;;;;;;;;;;;;;;;6.14;84.43;98118.88;4937646;29;19919;-84
2021/11/04 00:11:08;;;;;;;;;;;;;;;6.18;84.68;98125.69;4937588;29;20006;-84
2021/11/04 00:13:33;;;;;;;;;;;;;;;6.20;84.96;98121.19;4937600;29;19929;-85
2021/11/04 00:15:59;;;;;;;;;;;;;;;6.22;84.92;98129.00;4937552;29;19938;-85
2021/11/04 00:18:24;;;;;;;;;;;;;;;6.22;84.98;98139.53;4936678;29;20285;-84
2021/11/04 00:20:49;;;;;;;;;;;;;;;6.25;85.08;98142.00;4934761;29;19927;-85
2021/11/04 03:22:45;;;;;;;;;;;;;;;7.49;100.00;98217.97;4893146;29;20496;-84
2021/11/04 03:25:14;;;;;;;;;;;;;;;7.49;100.00;98233.78;4895645;29;19934;-84
2021/11/04 03:27:40;;;;;;;;;;;;;;;7.53;100.00;98235.28;4894839;29;19947;-85
2021/11/04 03:30:05;;;;;;;;;;;;;;;7.51;100.00;98240.63;4896645;29;20374;-84
2021/11/04 03:32:31;;;;;;;;;;;;;;;7.53;100.00;98240.56;4895534;29;20024;-86
2021/11/04 03:34:57;;;;;;;;;;;;;;;7.51;100.00;98245.06;4901608;29;19923;-86
2021/11/04 03:37:23;;;;;;;;;;;;;;;7.58;100.00;98254.34;4895343;29;19919;-85
2021/11/04 03:39:49;;;;;;;;;;;;;;;7.57;100.00;98256.13;4898654;29;19920;-85
2021/11/04 03:42:15;;;;;;;;;;;;;;;7.60;100.00;98257.75;4900436;29;19930;-85
2021/11/04 03:44:41;;;;;;;;;;;;;;;7.60;100.00;98258.59;4899710;29;20286;-86
2021/11/04 03:47:08;;;;;;;;;;;;;;;7.62;100.00;98258.50;4900154;29;19927;-86
2021/11/04 03:49:34;;;;;;;;;;;;;;;7.66;100.00;98262.69;4897431;29;20411;-86
2021/11/04 03:51:59;;;;;;;;;;;;;;;7.37;100.00;98265.13;4900205;29;20159;-86
2021/11/04 03:54:26;;;;;;;;;;;;;;;5.95;100.00;98269.66;4898968;29;20277;-84
2021/11/04 03:56:52;;;;;;;;;;;;;;;5.14;100.00;98276.91;4899305;29;19920;-84
2021/11/04 03:59:17;;;;;;;;;;;;;;;4.80;100.00;98277.53;4900041;29;19946;-85
2021/11/04 04:01:43;;;;;;;;;;;;;;;4.62;99.66;98284.44;4899925;29;19924;-84
2021/11/04 04:04:09;;;;;;;;;;;;;;;4.46;97.85;98285.06;4899857;29;19919;-85
2021/11/04 04:06:35;;;;;;;;;;;;;;;4.27;97.00;98289.38;4898696;29;19924;-85
2021/11/04 04:09:01;;;;;;;;;;;;;;;4.18;96.63;98288.84;4898556;29;20382;-86
2021/11/04 04:11:27;;;;;;;;;;;;;;;4.12;98.32;98294.34;4899900;29;19952;-84
2021/11/04 04:13:55;;;;;;;;;;;;;;;4.26;100.00;98292.91;4899042;29;19919;-85
2021/11/04 04:16:20;;;;;;;;;;;;;;;4.19;100.00;98308.88;4899874;29;20382;-84
2021/11/04 04:18:45;;;;;;;;;;;;;;;4.33;100.00;98302.25;4899485;29;19919;-85
2021/11/04 04:21:10;;;;;;;;;;;;;;;4.49;100.00;98305.09;4898356;29;19925;-83
2021/11/04 04:23:36;;;;;;;;;;;;;;;4.50;100.00;98306.78;4899502;29;19927;-83
2021/11/04 04:26:01;;;;;;;;;;;;;;;4.31;100.00;98322.44;4899483;29;20367;-84
2021/11/04 04:28:26;;;;;;;;;;;;;;;4.04;100.00;98325.25;4899539;29;19923;-83
2021/11/04 04:30:51;;;;;;;;;;;;;;;3.87;100.00;98328.53;4899357;29;20005;-84
2021/11/04 04:33:17;;;;;;;;;;;;;;;3.79;100.00;98318.31;4899388;29;20017;-84
2021/11/04 04:35:42;;;;;;;;;;;;;;;3.74;100.00;98328.13;4898288;29;19919;-84
2021/11/04 04:38:07;;;;;;;;;;;;;;;3.57;100.00;98327.91;4899252;29;19923;-84
2021/11/04 04:40:32;;;;;;;;;;;;;;;3.52;100.00;98333.34;4899284;29;19955;-84
2021/11/04 04:42:58;;;;;;;;;;;;;;;3.43;100.00;98331.91;4899042;29;19927;-84
2021/11/04 04:45:23;;;;;;;;;;;;;;;3.33;100.00;98338.38;4897987;29;20002;-84
2021/11/04 04:47:48;;;;;;;;;;;;;;;3.24;99.99;98330.91;4899015;29;19923;-85
2021/11/04 04:50:14;;;;;;;;;;;;;;;3.18;99.28;98336.34;4897579;29;20406;-83
2021/11/04 04:52:41;;;;;;;;;;;;;;;3.08;98.89;98339.28;4899078;29;19919;-84
2021/11/04 04:55:06;;;;;;;;;;;;;;;3.13;98.59;98336.50;4898455;29;19915;-83
2021/11/04 04:57:32;;;;;;;;;;;;;;;3.02;98.39;98336.88;4913528;29;20334;-84
2021/11/04 04:59:58;;;;;;;;;;;;;;;3.00;98.04;98336.09;4898920;29;19920;-84
2021/11/04 05:02:23;;;;;;;;;;;;;;;2.93;97.55;98345.03;4898990;29;19923;-84
2021/11/04 05:04:49;;;;;;;;;;;;;;;2.84;97.05;98335.78;4897641;29;19927;-84
2021/11/04 05:07:15;;;;;;;;;;;;;;;2.81;96.50;98341.09;4898906;29;19943;-85
2021/11/04 05:09:40;;;;;;;;;;;;;;;2.80;96.20;98339.38;4898836;29;19923;-84
2021/11/04 05:12:06;;;;;;;;;;;;;;;2.78;95.05;98341.22;4898717;29;19920;-84
2021/11/04 05:14:31;;;;;;;;;;;;;;;2.71;94.57;98339.69;4897472;29;19927;-84
2021/11/04 05:16:57;;;;;;;;;;;;;;;2.58;94.57;98341.88;4898768;29;20038;-84
2021/11/04 05:19:22;;;;;;;;;;;;;;;2.54;93.97;98340.28;4897674;29;20278;-84
2021/11/04 08:56:09;;;;;;;;;;;;;;;4.23;91.33;98623.41;5281784;23;19935;-84
2021/11/04 08:58:35;;;;;;;;;;;;;;;4.28;91.03;98629.38;4908179;29;20264;-85
2021/11/04 09:01:00;;;;;;;;;;;;;;;4.29;90.76;98628.44;4906868;29;19961;-85
2021/11/04 09:03:26;;;;;;;;;;;;;;;4.29;90.44;98639.81;4908671;29;19923;-84
2021/11/04 09:05:51;;;;;;;;;;;;;;;4.32;90.36;98639.69;4908567;29;19920;-85
2021/11/04 09:08:18;;;;;;;;;;;;;;;4.36;89.98;98651.78;4907826;29;19969;-85
2021/11/04 09:10:44;;;;;;;;;;;;;;;4.36;89.79;98649.16;4906659;29;19990;-85
2021/11/04 09:13:09;;;;;;;;;;;;;;;4.39;89.51;98656.06;4904280;29;20339;-85
2021/11/04 09:15:35;;;;;;;;;;;;;;;4.41;89.04;98653.41;4906925;29;20014;-84
2021/11/04 09:18:01;;;;;;;;;;;;;;;4.42;88.89;98663.84;4907232;29;19919;-84
2021/11/04 09:20:27;;;;;;;;;;;;;;;4.48;88.85;98653.13;4906840;29;19955;-85
2021/11/04 09:22:52;;;;;;;;;;;;;;;4.46;88.17;98657.53;4906393;29;19982;-85
2021/11/04 09:25:19;;;;;;;;;;;;;;;4.48;88.09;98671.50;4906365;29;19939;-84
2021/11/04 09:27:46;;;;;;;;;;;;;;;4.53;88.08;98669.53;4907484;29;19919;-84
2021/11/04 09:30:11;;;;;;;;;;;;;;;4.58;87.93;98665.88;4906667;29;19919;-84
2021/11/04 09:32:37;;;;;;;;;;;;;;;4.61;87.87;98676.28;4908162;29;19928;-84
2021/11/04 09:35:02;;;;;;;;;;;;;;;4.62;87.73;98670.97;4907523;29;20017;-84
2021/11/04 09:37:28;;;;;;;;;;;;;;;4.63;87.70;98674.47;4906694;29;20006;-84
2021/11/04 09:39:53;;;;;;;;;;;;;;;4.66;87.52;98682.19;4906528;29;20358;-84
2021/11/04 09:42:22;;;;;;;;;;;;;;;4.69;87.29;98688.22;4907849;29;19953;-84
2021/11/04 09:44:48;;;;;;;;;;;;;;;4.69;87.27;98689.97;4907569;29;19931;-85
2021/11/04 09:47:19;;;;;;;;;;;;;;;4.75;87.13;98695.00;4907460;29;19924;-85
2021/11/04 09:49:45;;;;;;;;;;;;;;;4.76;86.93;98688.00;4907588;29;19930;-85
2021/11/04 09:52:10;;;;;;;;;;;;;;;4.77;86.86;98692.31;4906222;29;19919;-85
2021/11/04 09:54:35;;;;;;;;;;;;;;;4.83;86.82;98700.81;4906168;29;20414;-84
2021/11/04 09:57:01;;;;;;;;;;;;;;;4.82;86.75;98706.13;4905765;29;19990;-84
2021/11/04 09:59:27;;;;;;;;;;;;;;;4.90;86.83;98709.34;4906400;29;19998;-85
2021/11/04 10:01:52;;;;;;;;;;;;;;;4.91;86.64;98704.03;4907319;29;19918;-85
2021/11/04 10:04:40;;;;;;;;;;;;;;;4.94;86.64;98721.44;4906473;29;20026;-85
2021/11/04 10:07:07;;;;;;;;;;;;;;;4.95;86.29;98730.19;4907160;29;19920;-85
2021/11/04 10:09:33;;;;;;;;;;;;;;;4.96;86.20;98724.00;4905904;29;19929;-86
2021/11/04 10:12:04;;;;;;;;;;;;;;;4.97;86.25;98721.31;4905985;29;19919;-85
2021/11/04 10:14:31;;;;;;;;;;;;;;;5.04;86.46;98724.56;4905592;29;19919;-86
2021/11/04 10:16:57;;;;;;;;;;;;;;;5.08;86.16;98728.81;4906668;29;19920;-84
2021/11/04 10:19:23;;;;;;;;;;;;;;;5.06;86.09;98726.22;4906805;29;19924;-85
2021/11/04 10:21:51;;;;;;;;;;;;;;;5.13;86.31;98728.63;4905536;29;19926;-85
2021/11/04 10:24:16;;;;;;;;;;;;;;;5.15;86.40;98734.69;4906869;29;19959;-85
2021/11/04 10:26:43;;;;;;;;;;;;;;;5.20;86.73;98732.72;4903687;29;20202;-85
2021/11/04 10:29:10;;;;;;;;;;;;;;;5.19;86.83;98731.88;4905843;29;20331;-85
2021/11/04 10:31:41;;;;;;;;;;;;;;;5.21;86.85;98735.28;4906830;29;20287;-85
2021/11/04 10:34:27;;;;;;;;;;;;;;;5.26;87.02;98729.88;4906485;29;19992;-85
2021/11/04 10:36:53;;;;;;;;;;;;;;;5.28;87.03;98733.28;4906309;29;19923;-85
2021/11/04 10:39:24;;;;;;;;;;;;;;;5.27;87.02;98737.69;4906761;29;20359;-85
2021/11/04 10:41:53;;;;;;;;;;;;;;;5.27;86.94;98735.06;4905576;29;19930;-85
2021/11/04 10:44:20;;;;;;;;;;;;;;;5.32;87.12;98734.06;4906572;29;19970;-85
2021/11/04 10:46:50;;;;;;;;;;;;;;;5.34;87.02;98740.94;4906701;29;19927;-85
2021/11/04 10:49:17;;;;;;;;;;;;;;;5.38;87.11;98733.81;4906777;29;19924;-85
2021/11/04 10:51:42;;;;;;;;;;;;;;;5.35;86.96;98739.19;4905073;29;19931;-85
2021/11/04 10:54:09;;;;;;;;;;;;;;;5.34;87.02;98740.94;4905258;29;19919;-85
2021/11/04 10:56:35;;;;;;;;;;;;;;;5.42;87.08;98744.13;4905505;29;19931;-85
2021/11/04 10:59:03;;;;;;;;;;;;;;;5.40;87.14;98740.72;4906577;29;20015;-85
2021/11/04 11:01:34;;;;;;;;;;;;;;;5.41;87.29;98737.16;4906229;29;19926;-85
2021/11/04 11:04:07;;;;;;;;;;;;;;;5.48;87.32;98743.03;4920539;29;19942;-85
2021/11/04 11:06:34;;;;;;;;;;;;;;;5.45;87.36;98738.75;4906182;29;20328;-85
2021/11/04 11:09:01;;;;;;;;;;;;;;;5.46;87.29;98739.63;4920553;29;20405;-85
2021/11/04 11:11:26;;;;;;;;;;;;;;;5.49;87.23;98752.66;4905266;29;19958;-85
2021/11/04 11:13:51;;;;;;;;;;;;;;;5.49;87.50;98752.66;4906106;29;19951;-85
2021/11/04 11:16:19;;;;;;;;;;;;;;;5.52;87.97;98757.78;4906077;29;19923;-85
2021/11/04 11:18:45;;;;;;;;;;;;;;;5.56;87.96;98759.38;4904136;29;19966;-85
2021/11/04 11:21:10;;;;;;;;;;;;;;;5.57;87.77;98763.72;4906268;29;19951;-85
2021/11/04 11:23:36;;;;;;;;;;;;;;;5.55;87.69;98773.44;4906129;29;20022;-85
2021/11/04 11:26:02;;;;;;;;;;;;;;;5.58;87.81;98770.66;4919053;29;19927;-85
2021/11/04 11:28:32;;;;;;;;;;;;;;;5.61;87.95;98777.59;4906247;29;20413;-85
2021/11/04 11:31:13;;;;;;;;;;;;;;;5.61;87.95;98777.59;4904272;29;19945;-85
2021/11/04 11:33:39;;;;;;;;;;;;;;;5.63;88.09;98779.25;4905865;29;19916;-85
2021/11/04 11:36:14;;;;;;;;;;;;;;;5.62;88.24;98782.78;4903635;29;19948;-85
2021/11/04 11:38:59;;;;;;;;;;;;;;;5.64;88.17;98782.72;4905341;29;19973;-84
2021/11/04 11:41:28;;;;;;;;;;;;;;;5.64;88.08;98786.19;4910821;29;19923;-85
2021/11/04 11:43:57;;;;;;;;;;;;;;;5.67;88.58;98787.03;4906004;29;20458;-86
2021/11/04 11:46:23;;;;;;;;;;;;;;;5.70;88.72;98779.88;4905840;29;19919;-85
2021/11/04 11:49:07;;;;;;;;;;;;;;;5.72;88.82;98795.56;4905544;29;20168;-86
2021/11/04 11:51:39;;;;;;;;;;;;;;;5.71;88.69;98797.34;4905935;29;20237;-86
2021/11/04 11:54:04;;;;;;;;;;;;;;;5.74;88.98;98799.00;4905717;29;19915;-85
2021/11/04 11:56:30;;;;;;;;;;;;;;;5.75;88.92;98796.31;4903230;29;19995;-86
2021/11/04 11:59:14;;;;;;;;;;;;;;;5.81;89.20;98797.84;4904579;29;19967;-85
2021/11/04 12:01:49;;;;;;;;;;;;;;;5.79;89.14;98800.53;4909099;29;19923;-85
2021/11/04 12:04:26;;;;;;;;;;;;;;;5.78;89.19;98797.97;4906848;29;19952;-85
2021/11/04 12:06:53;;;;;;;;;;;;;;;5.82;89.43;98804.81;4909265;29;19923;-85
2021/11/04 12:09:31;;;;;;;;;;;;;;;5.82;89.36;98804.81;4909748;29;19943;-85
2021/11/04 12:11:56;;;;;;;;;;;;;;;5.86;89.76;98806.41;4909253;29;19926;-86
2021/11/04 12:14:22;;;;;;;;;;;;;;;5.87;89.70;98808.13;4909303;29;20444;-85
2021/11/04 12:17:03;;;;;;;;;;;;;;;5.86;89.75;98808.19;4908081;29;20022;-85
2021/11/04 12:19:52;;;;;;;;;;;;;;;5.89;89.80;98816.81;4909004;29;19915;-85
2021/11/04 12:22:17;;;;;;;;;;;;;;;5.91;90.08;98814.13;4905314;29;20291;-85
2021/11/04 12:24:45;;;;;;;;;;;;;;;5.91;90.08;98809.72;4906578;29;19930;-85
2021/11/04 12:27:11;;;;;;;;;;;;;;;5.93;89.95;98814.91;4908232;29;19951;-86
2021/11/04 12:29:36;;;;;;;;;;;;;;;5.93;90.21;98823.63;4909215;29;20002;-85
2021/11/04 12:32:07;;;;;;;;;;;;;;;5.96;90.19;98823.56;4909516;29;19923;-86
2021/11/04 12:34:33;;;;;;;;;;;;;;;6.03;90.37;98818.06;4906946;29;20383;-86
2021/11/04 12:37:05;;;;;;;;;;;;;;;6.02;90.38;98822.47;4909199;29;19955;-86
2021/11/04 12:39:31;;;;;;;;;;;;;;;5.99;90.47;98823.44;4914126;29;20006;-85
2021/11/04 12:41:58;;;;;;;;;;;;;;;6.04;90.67;98814.53;4908367;29;19946;-85
2021/11/04 12:44:26;;;;;;;;;;;;;;;6.04;90.86;98831.16;4908880;29;20291;-85
2021/11/04 12:46:52;;;;;;;;;;;;;;;6.07;91.06;98831.03;4907815;29;20302;-85
2021/11/04 12:49:23;;;;;;;;;;;;;;;6.08;91.07;98827.50;4908458;29;19919;-86
2021/11/04 12:51:54;;;;;;;;;;;;;;;6.15;91.29;98830.72;4907370;29;20360;-86
2021/11/04 12:54:39;;;;;;;;;;;;;;;6.26;91.88;98835.56;4908865;29;19919;-86
2021/11/04 12:57:24;;;;;;;;;;;;;;;6.31;92.62;98844.97;4908154;29;20350;-85
2021/11/04 12:59:50;;;;;;;;;;;;;;;6.36;93.29;98845.63;4908819;29;19930;-85
2021/11/04 13:02:17;;;;;;;;;;;;;;;6.33;93.64;98845.78;4908412;29;19927;-86
2021/11/04 13:04:46;;;;;;;;;;;;;;;6.30;93.84;98850.28;4907306;29;20287;-85
2021/11/04 13:07:12;;;;;;;;;;;;;;;6.18;93.83;98849.88;4908064;29;19926;-85
2021/11/04 13:10:16;;;;;;;;;;;;;;;6.06;93.46;98852.97;4906958;29;20388;-85
2021/11/04 13:12:42;;;;;;;;;;;;;;;5.82;92.47;98860.00;4881317;29;19920;-85
2021/11/04 13:15:12;;;;;;;;;;;;;;;5.62;91.78;98859.00;4908026;29;20013;-86
2021/11/04 13:17:37;;;;;;;;;;;;;;;5.50;91.36;98858.59;4907945;29;19926;-85
2021/11/04 13:20:07;;;;;;;;;;;;;;;5.35;91.70;98867.91;4908471;29;19923;-86
2021/11/04 13:22:35;;;;;;;;;;;;;;;5.32;92.79;98874.13;4906733;29;20375;-86
2021/11/04 13:25:02;;;;;;;;;;;;;;;5.42;94.84;98875.47;4906658;29;19920;-85
2021/11/04 13:27:28;;;;;;;;;;;;;;;5.51;97.69;98868.22;4908091;29;20303;-85
2021/11/04 13:29:57;;;;;;;;;;;;;;;5.68;100.00;98876.31;4907065;29;19929;-85
2021/11/04 13:32:24;;;;;;;;;;;;;;;5.89;100.00;98874.66;4908108;29;19919;-85
2021/11/04 13:34:49;;;;;;;;;;;;;;;6.09;100.00;98878.31;4906685;29;19919;-85
2021/11/04 13:37:18;;;;;;;;;;;;;;;6.28;100.00;98881.91;4906073;29;19923;-85
2021/11/04 13:39:44;;;;;;;;;;;;;;;6.36;100.00;98882.47;4905490;29;19919;-85
2021/11/04 13:42:20;;;;;;;;;;;;;;;6.44;100.00;98882.16;4907755;29;19919;-85
2021/11/04 13:44:46;;;;;;;;;;;;;;;6.54;100.00;98885.28;4906848;29;19923;-85
2021/11/04 13:47:11;;;;;;;;;;;;;;;6.63;100.00;98887.53;4907796;29;19926;-85
2021/11/04 13:49:36;;;;;;;;;;;;;;;6.66;100.00;98894.47;4907719;29;19927;-86
2021/11/04 13:52:02;;;;;;;;;;;;;;;6.66;100.00;98887.41;4907495;29;19920;-86
2021/11/04 13:54:28;;;;;;;;;;;;;;;6.74;100.00;98892.38;4905956;29;19931;-85
2021/11/04 13:56:56;;;;;;;;;;;;;;;6.77;100.00;98894.03;4906150;29;20047;-85
2021/11/04 13:59:34;;;;;;;;;;;;;;;6.83;100.00;98899.00;4907231;29;19919;-85
2021/11/04 14:02:00;;;;;;;;;;;;;;;6.85;100.00;98902.47;4906749;29;19991;-86
2021/11/04 14:04:26;;;;;;;;;;;;;;;6.89;100.00;98904.03;4920371;29;19979;-85
2021/11/04 14:06:51;;;;;;;;;;;;;;;6.90;100.00;98911.88;4907253;29;20013;-85
2021/11/04 14:09:30;;;;;;;;;;;;;;;6.91;100.00;98912.75;4907505;29;20275;-85
2021/11/04 14:12:01;;;;;;;;;;;;;;;6.93;100.00;98910.06;4905461;29;20294;-85
2021/11/04 14:14:27;;;;;;;;;;;;;;;6.97;100.00;98923.00;4906005;29;19919;-85
2021/11/04 14:17:01;;;;;;;;;;;;;;;6.99;100.00;98915.03;4906791;29;19919;-86
2021/11/04 14:19:27;;;;;;;;;;;;;;;6.99;100.00;98921.19;4904762;29;19919;-85
2021/11/04 14:21:52;;;;;;;;;;;;;;;7.05;100.00;98922.69;4906795;29;20066;-86
2021/11/04 14:24:17;;;;;;;;;;;;;;;7.05;100.00;98918.28;4906848;29;20069;-85
2021/11/04 14:26:43;;;;;;;;;;;;;;;6.48;100.00;98914.50;4905739;29;19919;-86
2021/11/04 14:29:09;;;;;;;;;;;;;;;5.19;100.00;98914.88;4906647;29;19929;-85
2021/11/04 14:31:35;;;;;;;;;;;;;;;4.48;100.00;98922.44;4906730;29;19924;-86
2021/11/04 14:34:01;;;;;;;;;;;;;;;4.17;100.00;98924.25;4906655;29;20011;-85
2021/11/04 14:36:28;;;;;;;;;;;;;;;4.02;100.00;98921.25;4906925;29;19930;-86
2021/11/04 14:38:53;;;;;;;;;;;;;;;3.90;99.17;98930.34;4905518;29;19924;-85
2021/11/04 14:41:19;;;;;;;;;;;;;;;3.80;97.91;98932.38;4903906;29;19926;-85
2021/11/04 14:43:44;;;;;;;;;;;;;;;3.70;96.27;98937.03;4906413;29;19926;-84
2021/11/04 14:46:09;;;;;;;;;;;;;;;3.57;94.96;98933.00;4906861;29;20299;-85
2021/11/04 14:48:35;;;;;;;;;;;;;;;3.52;93.59;98940.16;4905109;29;20382;-85
2021/11/04 14:51:02;;;;;;;;;;;;;;;3.39;92.12;98945.72;4906248;29;19923;-86
2021/11/04 14:53:27;;;;;;;;;;;;;;;3.35;90.89;98941.47;4906556;29;19919;-86
2021/11/04 14:55:53;;;;;;;;;;;;;;;3.21;89.74;98946.22;4905159;29;19931;-86
2021/11/04 14:58:18;;;;;;;;;;;;;;;3.12;89.27;98946.47;4906245;29;19919;-87
2021/11/04 15:00:43;;;;;;;;;;;;;;;3.09;88.88;98943.03;4906039;29;19935;-86
2021/11/04 15:03:09;;;;;;;;;;;;;;;2.97;88.27;98950.31;4906944;29;19919;-86
2021/11/04 15:05:35;;;;;;;;;;;;;;;2.88;88.27;98943.56;4905598;29;20461;-86
2021/11/04 15:08:00;;;;;;;;;;;;;;;2.78;87.40;98952.53;4905490;29;20268;-86
2021/11/04 15:10:26;;;;;;;;;;;;;;;2.75;87.12;98947.38;4904936;29;19925;-85
2021/11/04 15:12:51;;;;;;;;;;;;;;;2.68;87.32;98952.75;4906800;29;19926;-86
2021/11/04 15:15:16;;;;;;;;;;;;;;;2.68;86.65;98963.22;4906219;29;19966;-86
2021/11/04 15:17:42;;;;;;;;;;;;;;;2.57;86.11;98957.38;4906137;29;19979;-86
2021/11/04 15:20:08;;;;;;;;;;;;;;;2.54;85.88;98966.16;4905003;29;20393;-85
2021/11/04 15:22:34;;;;;;;;;;;;;;;2.36;85.58;98964.84;4905879;29;20311;-86
2021/11/04 15:24:59;;;;;;;;;;;;;;;2.34;85.29;98971.81;4911411;29;19970;-86
2021/11/04 15:27:25;;;;;;;;;;;;;;;2.38;85.31;98975.25;4906344;29;19963;-85
2021/11/04 15:29:50;;;;;;;;;;;;;;;2.30;85.24;98978.03;4905960;29;19927;-86
2021/11/04 15:32:15;;;;;;;;;;;;;;;2.18;84.94;98984.38;4905985;29;20340;-86
2021/11/04 15:34:42;;;;;;;;;;;;;;;2.20;85.02;98976.50;4906645;29;19919;-86
2021/11/04 15:37:07;;;;;;;;;;;;;;;2.06;84.91;98984.66;4910111;29;20026;-86
2021/11/04 15:39:33;;;;;;;;;;;;;;;2.20;86.42;98986.09;4909513;29;20006;-86
2021/11/04 15:41:59;;;;;;;;;;;;;;;2.37;89.08;98989.22;4908826;29;19926;-85
2021/11/04 15:44:24;;;;;;;;;;;;;;;2.63;92.65;98993.00;4909886;29;19931;-86
2021/11/04 15:46:50;;;;;;;;;;;;;;;2.83;95.87;98989.91;4909760;29;19923;-85
2021/11/04 15:49:15;;;;;;;;;;;;;;;3.00;97.79;98995.59;4908143;29;19923;-86
2021/11/04 15:51:40;;;;;;;;;;;;;;;3.03;99.16;99000.75;4909733;29;19930;-85
2021/11/04 15:54:06;;;;;;;;;;;;;;;3.09;100.00;99003.22;4909759;29;19934;-85
2021/11/04 15:56:32;;;;;;;;;;;;;;;3.14;100.00;99016.19;4922491;29;19923;-86
2021/11/04 15:58:57;;;;;;;;;;;;;;;3.12;100.00;99009.28;4909589;29;19944;-85
2021/11/04 16:01:23;;;;;;;;;;;;;;;3.09;100.00;99013.69;4908076;29;19915;-84
2021/11/04 16:03:48;;;;;;;;;;;;;;;3.16;100.00;99021.38;4909267;29;19979;-86
2021/11/04 16:06:29;;;;;;;;;;;;;;;3.04;100.00;99023.41;4908733;29;19919;-86
2021/11/04 16:08:55;;;;;;;;;;;;;;;3.12;100.00;99019.75;4909044;29;19923;-86
2021/11/04 16:11:20;;;;;;;;;;;;;;;3.11;100.00;99023.25;4907897;29;19919;-86
2021/11/04 16:13:45;;;;;;;;;;;;;;;3.11;100.00;99025.88;4908758;29;20387;-86
2021/11/04 16:16:11;;;;;;;;;;;;;;;3.09;100.00;99028.53;4909152;29;19927;-86
2021/11/04 16:18:36;;;;;;;;;;;;;;;3.13;100.00;99031.91;4908753;29;20434;-86
2021/11/04 16:21:01;;;;;;;;;;;;;;;3.16;100.00;99047.56;4908986;29;19926;-86
2021/11/04 16:23:44;;;;;;;;;;;;;;;3.19;100.00;99052.72;4909166;29;19935;-87
2021/11/04 16:26:10;;;;;;;;;;;;;;;3.16;100.00;99052.78;4903860;29;19923;-86
2021/11/04 16:28:37;;;;;;;;;;;;;;;3.21;100.00;99057.03;4906558;29;19931;-86
2021/11/04 16:31:05;;;;;;;;;;;;;;;3.23;100.00;99063.09;4907483;29;20374;-87
2021/11/04 16:33:33;;;;;;;;;;;;;;;3.19;100.00;99068.44;4907537;29;20303;-86
2021/11/04 16:35:58;;;;;;;;;;;;;;;3.22;100.00;99070.97;4907585;29;19964;-87
2021/11/04 16:38:24;;;;;;;;;;;;;;;3.21;100.00;99067.50;4905788;29;19950;-87
2021/11/04 16:40:49;;;;;;;;;;;;;;;3.21;100.00;99070.13;4904214;29;20018;-87
2021/11/04 16:43:20;;;;;;;;;;;;;;;3.22;100.00;99061.38;4908945;29;19972;-88
2021/11/04 16:45:46;;;;;;;;;;;;;;;3.24;100.00;99071.81;4904709;29;19923;-86
2021/11/04 16:48:11;;;;;;;;;;;;;;;3.26;100.00;99077.88;4907340;29;19926;-87
2021/11/04 16:50:39;;;;;;;;;;;;;;;3.26;100.00;99075.25;4905283;29;20051;-86
2021/11/04 16:53:05;;;;;;;;;;;;;;;3.32;100.00;99080.34;4905186;29;19927;-87
2021/11/04 16:55:31;;;;;;;;;;;;;;;3.32;100.00;99082.97;4904411;29;19927;-86
2021/11/04 16:58:05;;;;;;;;;;;;;;;3.31;100.00;99091.72;4905642;29;19923;-87
2021/11/04 17:00:48;;;;;;;;;;;;;;;3.34;100.00;99093.41;4905981;29;20402;-87
2021/11/04 17:03:16;;;;;;;;;;;;;;;3.38;100.00;99092.41;4917509;29;20083;-86
2021/11/04 17:05:45;;;;;;;;;;;;;;;3.40;100.00;99091.50;4904268;29;19927;-87
2021/11/04 17:08:10;;;;;;;;;;;;;;;3.39;100.00;99105.47;4906469;29;19924;-87
2021/11/04 17:10:55;;;;;;;;;;;;;;;3.46;99.44;99114.03;4904674;29;19930;-86
2021/11/04 17:13:29;;;;;;;;;;;;;;;3.48;98.33;99114.88;4905648;29;20867;-87
2021/11/04 17:15:54;;;;;;;;;;;;;;;3.52;97.35;99119.13;4905752;29;19927;-86
2021/11/04 17:18:20;;;;;;;;;;;;;;;3.54;96.47;99121.72;4905704;29;19924;-87
2021/11/04 17:20:45;;;;;;;;;;;;;;;3.53;95.35;99131.34;4905468;29;19931;-87
2021/11/04 17:23:11;;;;;;;;;;;;;;;3.55;94.51;99131.28;4908225;29;20356;-87
2021/11/04 17:25:36;;;;;;;;;;;;;;;3.59;93.65;99136.44;4905071;29;19966;-87
2021/11/04 17:28:02;;;;;;;;;;;;;;;3.65;92.92;99135.41;4905258;29;19927;-86
2021/11/04 17:30:35;;;;;;;;;;;;;;;3.64;92.20;99138.94;4905750;29;19933;-86
2021/11/04 17:33:00;;;;;;;;;;;;;;;3.66;91.52;99142.38;4907270;29;19935;-87
2021/11/04 17:35:26;;;;;;;;;;;;;;;3.66;90.61;99152.00;4906295;29;19928;-86
2021/11/04 17:37:51;;;;;;;;;;;;;;;3.64;90.00;99150.25;4906235;29;19987;-87
2021/11/04 17:40:17;;;;;;;;;;;;;;;3.70;89.54;99153.63;4904325;29;20397;-87
2021/11/04 17:42:50;;;;;;;;;;;;;;;3.73;89.00;99159.66;4906225;29;20043;-87
2021/11/04 17:45:16;;;;;;;;;;;;;;;3.73;88.59;99159.66;4905965;29;19930;-88
2021/11/04 17:47:44;;;;;;;;;;;;;;;3.78;88.07;99156.91;4906942;29;19924;-86
2021/11/04 17:50:11;;;;;;;;;;;;;;;3.81;87.72;99162.97;4906531;29;20343;-86
2021/11/04 17:52:37;;;;;;;;;;;;;;;3.84;87.48;99161.16;4904933;29;20054;-87
2021/11/04 17:55:03;;;;;;;;;;;;;;;3.84;87.22;99164.63;4904583;29;19927;-86
2021/11/04 17:57:28;;;;;;;;;;;;;;;3.88;86.91;99168.00;4903110;29;19924;-88
2021/11/04 17:59:54;;;;;;;;;;;;;;;3.85;86.62;99162.88;4907610;29;19919;-88
2021/11/04 18:02:20;;;;;;;;;;;;;;;3.86;86.20;99164.59;4904772;29;19919;-87
2021/11/04 18:04:45;;;;;;;;;;;;;;;3.88;85.87;99168.00;4905411;29;20283;-88
2021/11/04 18:07:11;;;;;;;;;;;;;;;3.89;85.75;99172.38;4906272;29;19946;-87
2021/11/04 18:09:37;;;;;;;;;;;;;;;3.94;85.72;99178.34;4903785;29;20387;-87
2021/11/04 18:12:03;;;;;;;;;;;;;;;3.94;85.32;99181.84;4905271;29;19943;-89
2021/11/04 18:14:28;;;;;;;;;;;;;;;3.94;84.86;99183.59;4904360;29;19930;-89
2021/11/04 18:16:54;;;;;;;;;;;;;;;3.95;84.63;99195.81;4904282;29;19927;-88
2021/11/04 18:19:19;;;;;;;;;;;;;;;3.98;84.28;99193.13;4904660;29;20014;-89
2021/11/04 18:21:44;;;;;;;;;;;;;;;3.98;84.05;99195.75;4905932;29;19923;-89
2021/11/04 18:24:09;;;;;;;;;;;;;;;4.01;83.66;99195.66;4904885;29;19927;-88
2021/11/04 18:26:35;;;;;;;;;;;;;;;4.04;83.50;99200.84;4902442;29;19922;-88
2021/11/04 18:29:01;;;;;;;;;;;;;;;4.02;83.08;99197.41;4904051;29;20367;-88
2021/11/04 18:31:26;;;;;;;;;;;;;;;4.02;82.98;99201.75;4905065;29;19967;-87
2021/11/04 18:33:51;;;;;;;;;;;;;;;4.00;83.03;99207.91;4902063;29;19927;-89
2021/11/04 18:36:17;;;;;;;;;;;;;;;4.07;83.05;99211.25;4904682;29;19979;-85
2021/11/04 18:38:42;;;;;;;;;;;;;;;4.09;82.71;99208.59;4902322;29;19987;-85
2021/11/04 18:41:08;;;;;;;;;;;;;;;4.10;82.52;99216.41;4903423;29;19963;-85
2021/11/04 18:43:34;;;;;;;;;;;;;;;4.11;82.13;99218.09;4903112;29;20390;-86
2021/11/04 18:46:00;;;;;;;;;;;;;;;4.14;82.09;99215.41;4898101;29;19928;-86
2021/11/04 18:48:26;;;;;;;;;;;;;;;4.16;81.97;99216.25;4904163;29;19970;-86
2021/11/04 18:50:51;;;;;;;;;;;;;;;4.18;81.83;99216.22;4902330;29;19923;-85
2021/11/04 18:53:16;;;;;;;;;;;;;;;4.17;81.71;99222.34;4919879;29;20030;-86
2021/11/04 18:55:42;;;;;;;;;;;;;;;4.22;81.68;99215.22;4903176;29;19943;-86
2021/11/04 18:58:07;;;;;;;;;;;;;;;4.21;81.61;99215.25;4904022;29;20929;-87
2021/11/04 19:00:33;;;;;;;;;;;;;;;4.24;81.81;99217.81;4904373;29;19923;-85
2021/11/04 19:03:04;;;;;;;;;;;;;;;4.27;81.62;99222.97;4904667;29;19919;-85
2021/11/04 19:05:29;;;;;;;;;;;;;;;4.25;81.66;99222.16;4903373;29;20410;-86
2021/11/04 19:07:55;;;;;;;;;;;;;;;4.24;81.58;99223.03;4905403;29;19968;-86
2021/11/04 19:10:20;;;;;;;;;;;;;;;4.26;81.41;99218.63;4903535;29;19978;-84
2021/11/04 19:12:45;;;;;;;;;;;;;;;4.28;81.38;99222.94;4903180;29;19923;-85
2021/11/04 19:15:11;;;;;;;;;;;;;;;4.27;81.27;99226.44;4904643;29;19927;-86
2021/11/04 19:17:37;;;;;;;;;;;;;;;4.33;81.18;99225.44;4920868;29;19924;-86
2021/11/04 19:20:03;;;;;;;;;;;;;;;4.32;80.93;99226.31;4904133;29;19924;-86
2021/11/04 19:22:29;;;;;;;;;;;;;;;4.35;80.91;99221.00;4903278;29;19923;-86
2021/11/04 19:24:54;;;;;;;;;;;;;;;4.35;81.00;99224.47;4902681;29;20295;-85
2021/11/04 19:27:23;;;;;;;;;;;;;;;4.36;80.76;99226.22;4905774;29;19927;-86
2021/11/04 19:29:49;;;;;;;;;;;;;;;4.37;80.84;99227.06;4904841;29;19931;-86